sensor_id;sensor_type;location;lat;lon;timestamp;pressure;altitude;pressure_sealevel;temperature;humidity
5905;BME280;2978;42.012;24.880;2023-03-25T00:00:16;98525.00;;;12.96;56.73
5905;BME280;2978;42.012;24.880;2023-03-25T00:02:50;98515.88;;;12.96;56.63
5905;BME280;2978;42.012;24.880;2023-03-25T00:05:18;98514.56;;;12.93;56.38
5905;BME280;2978;42.012;24.880;2023-03-25T00:07:44;98523.38;;;12.95;56.93
5905;BME280;2978;42.012;24.880;2023-03-25T00:10:12;98512.38;;;12.90;56.63
5905;BME280;2978;42.012;24.880;2023-03-25T00:12:38;98509.03;;;12.93;56.62
5905;BME280;2978;42.012;24.880;2023-03-25T00:15:05;98514.34;;;12.90;57.16
5905;BME280;2978;42.012;24.880;2023-03-25T00:17:31;98500.22;;;12.91;56.59
5905;BME280;2978;42.012;24.880;2023-03-25T00:19:59;98499.69;;;12.89;56.96
5905;BME280;2978;42.012;24.880;2023-03-25T00:22:29;98495.78;;;12.95;56.80
5905;BME280;2978;42.012;24.880;2023-03-25T00:24:54;98491.06;;;12.96;57.10
5905;BME280;2978;42.012;24.880;2023-03-25T00:27:20;98503.53;;;12.93;56.79
5905;BME280;2978;42.012;24.880;2023-03-25T00:29:45;98496.94;;;12.89;56.85
5905;BME280;2978;42.012;24.880;2023-03-25T00:32:13;98501.34;;;12.90;56.74
5905;BME280;2978;42.012;24.880;2023-03-25T00:34:39;98511.44;;;13.00;56.49
5905;BME280;2978;42.012;24.880;2023-03-25T00:37:12;98508.44;;;12.96;56.30
5905;BME280;2978;42.012;24.880;2023-03-25T00:39:42;98506.34;;;12.88;56.49
5905;BME280;2978;42.012;24.880;2023-03-25T00:42:07;98507.59;;;12.77;57.27
5905;BME280;2978;42.012;24.880;2023-03-25T00:44:35;98507.13;;;12.70;57.77
5905;BME280;2978;42.012;24.880;2023-03-25T00:47:00;98508.81;;;12.66;57.57
5905;BME280;2978;42.012;24.880;2023-03-25T00:49:26;98510.19;;;12.69;57.97
5905;BME280;2978;42.012;24.880;2023-03-25T00:51:53;98506.59;;;12.68;57.70
5905;BME280;2978;42.012;24.880;2023-03-25T00:54:18;98497.50;;;12.68;57.99
5905;BME280;2978;42.012;24.880;2023-03-25T00:56:46;98494.03;;;12.57;57.85
5905;BME280;2978;42.012;24.880;2023-03-25T00:59:13;98490.19;;;12.58;58.15
5905;BME280;2978;42.012;24.880;2023-03-25T01:01:38;98490.19;;;12.58;58.34
5905;BME280;2978;42.012;24.880;2023-03-25T01:04:04;98481.28;;;12.42;59.08
5905;BME280;2978;42.012;24.880;2023-03-25T01:06:38;98466.97;;;12.40;58.31
5905;BME280;2978;42.012;24.880;2023-03-25T01:09:10;98468.94;;;12.35;59.06
5905;BME280;2978;42.012;24.880;2023-03-25T01:11:38;98467.88;;;12.31;59.54
5905;BME280;2978;42.012;24.880;2023-03-25T01:14:06;98479.16;;;12.34;59.12
5905;BME280;2978;42.012;24.880;2023-03-25T01:16:32;98479.50;;;12.28;59.37
5905;BME280;2978;42.012;24.880;2023-03-25T01:18:58;98468.00;;;12.21;60.11
5905;BME280;2978;42.012;24.880;2023-03-25T01:21:24;98468.13;;;12.11;60.43
5905;BME280;2978;42.012;24.880;2023-03-25T01:23:49;98472.88;;;12.05;60.30
5905;BME280;2978;42.012;24.880;2023-03-25T01:26:15;98471.25;;;12.04;60.27
5905;BME280;2978;42.012;24.880;2023-03-25T01:28:42;98470.41;;;12.04;60.88
5905;BME280;2978;42.012;24.880;2023-03-25T01:31:10;98470.75;;;11.97;60.68
5905;BME280;2978;42.012;24.880;2023-03-25T01:33:35;98469.09;;;11.96;60.25
5905;BME280;2978;42.012;24.880;2023-03-25T01:36:01;98477.31;;;12.01;60.50
5905;BME280;2978;42.012;24.880;2023-03-25T01:38:27;98472.09;;;12.00;60.72
5905;BME280;2978;42.012;24.880;2023-03-25T01:40:53;98459.63;;;12.07;59.93
5905;BME280;2978;42.012;24.880;2023-03-25T01:43:19;98453.56;;;12.05;60.40
5905;BME280;2978;42.012;24.880;2023-03-25T01:45:45;98451.34;;;12.07;60.13
5905;BME280;2978;42.012;24.880;2023-03-25T01:48:15;98441.72;;;12.05;60.27
5905;BME280;2978;42.012;24.880;2023-03-25T01:50:46;98433.09;;;11.88;60.69
5905;BME280;2978;42.012;24.880;2023-03-25T01:53:14;98427.75;;;11.73;61.30
5905;BME280;2978;42.012;24.880;2023-03-25T01:55:42;98405.81;;;11.63;61.50
5905;BME280;2978;42.012;24.880;2023-03-25T01:58:11;98416.03;;;11.57;62.19
5905;BME280;2978;42.012;24.880;2023-03-25T02:00:41;98417.47;;;11.50;62.69
5905;BME280;2978;42.012;24.880;2023-03-25T02:03:08;98409.13;;;11.60;62.75
5905;BME280;2978;42.012;24.880;2023-03-25T02:06:00;98412.94;;;11.64;61.99
5905;BME280;2978;42.012;24.880;2023-03-25T02:08:29;98399.44;;;11.67;61.86
5905;BME280;2978;42.012;24.880;2023-03-25T02:10:57;98384.31;;;11.65;62.25
5905;BME280;2978;42.012;24.880;2023-03-25T02:13:23;98398.09;;;11.65;61.67
5905;BME280;2978;42.012;24.880;2023-03-25T02:30:50;98406.31;;;11.70;62.14
5905;BME280;2978;42.012;24.880;2023-03-25T02:36:24;98404.44;;;11.60;62.11
5905;BME280;2978;42.012;24.880;2023-03-25T02:39:07;98413.84;;;11.54;62.76
5905;BME280;2978;42.012;24.880;2023-03-25T02:44:45;98412.50;;;11.52;62.76
5905;BME280;2978;42.012;24.880;2023-03-25T02:47:17;98408.94;;;11.51;62.30
5905;BME280;2978;42.012;24.880;2023-03-25T02:49:50;98402.03;;;11.54;62.13
5905;BME280;2978;42.012;24.880;2023-03-25T02:52:31;98405.88;;;11.53;62.22
5905;BME280;2978;42.012;24.880;2023-03-25T02:55:00;98407.31;;;11.50;62.80
5905;BME280;2978;42.012;24.880;2023-03-25T02:57:30;98394.63;;;11.49;62.68
5905;BME280;2978;42.012;24.880;2023-03-25T02:59:59;98402.09;;;11.49;62.28
5905;BME280;2978;42.012;24.880;2023-03-25T03:02:26;98386.06;;;11.51;62.53
5905;BME280;2978;42.012;24.880;2023-03-25T03:04:56;98385.03;;;11.47;62.82
5905;BME280;2978;42.012;24.880;2023-03-25T03:15:26;98379.75;;;11.21;63.65
5905;BME280;2978;42.012;24.880;2023-03-25T03:18:17;98380.34;;;11.18;63.50
5905;BME280;2978;42.012;24.880;2023-03-25T03:20:58;98367.97;;;11.16;64.01
5905;BME280;2978;42.012;24.880;2023-03-25T03:23:31;98363.34;;;11.11;63.99
5905;BME280;2978;42.012;24.880;2023-03-25T03:26:11;98357.88;;;11.06;63.99
5905;BME280;2978;42.012;24.880;2023-03-25T03:28:47;98353.47;;;11.05;64.71
5905;BME280;2978;42.012;24.880;2023-03-25T03:31:37;98344.09;;;11.11;63.86
5905;BME280;2978;42.012;24.880;2023-03-25T03:34:15;98346.84;;;11.11;64.17
5905;BME280;2978;42.012;24.880;2023-03-25T03:36:47;98333.66;;;11.08;64.05
5905;BME280;2978;42.012;24.880;2023-03-25T03:39:25;98339.47;;;11.07;64.26
5905;BME280;2978;42.012;24.880;2023-03-25T03:42:09;98354.75;;;11.18;64.22
5905;BME280;2978;42.012;24.880;2023-03-25T03:44:38;98341.63;;;11.10;64.03
5905;BME280;2978;42.012;24.880;2023-03-25T03:47:13;98355.09;;;11.11;64.29
5905;BME280;2978;42.012;24.880;2023-03-25T03:49:46;98354.94;;;10.98;64.59
5905;BME280;2978;42.012;24.880;2023-03-25T03:52:19;98352.78;;;10.90;64.83
5905;BME280;2978;42.012;24.880;2023-03-25T03:54:56;98346.78;;;10.83;65.34
5905;BME280;2978;42.012;24.880;2023-03-25T03:57:44;98347.13;;;10.76;65.71
5905;BME280;2978;42.012;24.880;2023-03-25T04:02:49;98369.09;;;10.76;65.64
5905;BME280;2978;42.012;24.880;2023-03-25T04:05:18;98366.84;;;10.83;65.43
5905;BME280;2978;42.012;24.880;2023-03-25T04:07:53;98378.91;;;10.92;65.48
5905;BME280;2978;42.012;24.880;2023-03-25T04:12:59;98369.53;;;10.93;65.54
5905;BME280;2978;42.012;24.880;2023-03-25T04:15:26;98365.41;;;10.96;65.05
5905;BME280;2978;42.012;24.880;2023-03-25T04:17:51;98365.41;;;10.96;65.47
5905;BME280;2978;42.012;24.880;2023-03-25T04:20:22;98354.94;;;10.98;65.31
5905;BME280;2978;42.012;24.880;2023-03-25T04:22:51;98356.28;;;11.00;65.01
5905;BME280;2978;42.012;24.880;2023-03-25T04:25:17;98354.34;;;11.01;65.28
5905;BME280;2978;42.012;24.880;2023-03-25T04:27:45;98351.66;;;10.96;64.92
5905;BME280;2978;42.012;24.880;2023-03-25T04:30:14;98355.72;;;10.98;65.05
5905;BME280;2978;42.012;24.880;2023-03-25T04:32:44;98347.22;;;11.00;65.05
5905;BME280;2978;42.012;24.880;2023-03-25T04:35:14;98350.72;;;11.05;64.50
5905;BME280;2978;42.012;24.880;2023-03-25T04:37:41;98357.38;;;10.99;64.88
5905;BME280;2978;42.012;24.880;2023-03-25T04:40:12;98353.28;;;10.97;65.49
5905;BME280;2978;42.012;24.880;2023-03-25T04:42:40;98357.16;;;10.96;65.54
5905;BME280;2978;42.012;24.880;2023-03-25T04:45:08;98369.66;;;11.12;64.34
5905;BME280;2978;42.012;24.880;2023-03-25T04:47:38;98372.78;;;11.58;63.01
5905;BME280;2978;42.012;24.880;2023-03-25T04:50:26;98370.06;;;12.10;61.32
5905;BME280;2978;42.012;24.880;2023-03-25T04:52:53;98368.47;;;12.46;59.82
5905;BME280;2978;42.012;24.880;2023-03-25T04:55:19;98374.22;;;12.68;58.99
5905;BME280;2978;42.012;24.880;2023-03-25T04:57:49;98388.72;;;12.92;58.25
5905;BME280;2978;42.012;24.880;2023-03-25T05:00:18;98388.34;;;13.04;57.31
5905;BME280;2978;42.012;24.880;2023-03-25T05:02:49;98383.34;;;13.01;58.13
5905;BME280;2978;42.012;24.880;2023-03-25T05:05:18;98400.69;;;12.88;58.15
5905;BME280;2978;42.012;24.880;2023-03-25T05:07:49;98386.69;;;12.66;58.95
5905;BME280;2978;42.012;24.880;2023-03-25T05:10:17;98382.47;;;12.50;59.34
5905;BME280;2978;42.012;24.880;2023-03-25T05:12:43;98383.28;;;12.50;59.23
5905;BME280;2978;42.012;24.880;2023-03-25T05:15:09;98378.22;;;12.57;58.74
5905;BME280;2978;42.012;24.880;2023-03-25T05:17:36;98378.97;;;12.63;58.70
5905;BME280;2978;42.012;24.880;2023-03-25T05:20:02;98373.97;;;12.65;58.33
5905;BME280;2978;42.012;24.880;2023-03-25T05:22:30;98366.97;;;12.54;58.80
5905;BME280;2978;42.012;24.880;2023-03-25T05:24:55;98366.31;;;12.62;58.63
5905;BME280;2978;42.012;24.880;2023-03-25T05:27:21;98362.56;;;12.71;58.24
5905;BME280;2978;42.012;24.880;2023-03-25T05:29:46;98357.22;;;12.61;58.36
5905;BME280;2978;42.012;24.880;2023-03-25T05:32:12;98363.56;;;12.62;58.43
5905;BME280;2978;42.012;24.880;2023-03-25T05:34:44;98358.19;;;12.52;58.83
5905;BME280;2978;42.012;24.880;2023-03-25T05:37:12;98357.91;;;12.53;58.46
5905;BME280;2978;42.012;24.880;2023-03-25T05:39:38;98363.34;;;12.58;58.35
5905;BME280;2978;42.012;24.880;2023-03-25T05:42:03;98343.56;;;12.70;57.99
5905;BME280;2978;42.012;24.880;2023-03-25T05:44:29;98358.03;;;12.80;57.82
5905;BME280;2978;42.012;24.880;2023-03-25T05:46:54;98367.50;;;12.93;57.79
5905;BME280;2978;42.012;24.880;2023-03-25T05:49:20;98362.97;;;13.02;57.34
5905;BME280;2978;42.012;24.880;2023-03-25T05:51:46;98364.22;;;13.09;57.02
5905;BME280;2978;42.012;24.880;2023-03-25T05:54:14;98367.34;;;13.21;56.72
5905;BME280;2978;42.012;24.880;2023-03-25T05:56:39;98359.81;;;13.08;57.21
5905;BME280;2978;42.012;24.880;2023-03-25T05:59:05;98361.59;;;13.18;56.57
5905;BME280;2978;42.012;24.880;2023-03-25T06:01:51;98379.06;;;13.45;56.33
5905;BME280;2978;42.012;24.880;2023-03-25T06:04:16;98378.50;;;13.76;55.51
5905;BME280;2978;42.012;24.880;2023-03-25T06:06:41;98372.38;;;14.06;56.16
5905;BME280;2978;42.012;24.880;2023-03-25T06:09:07;98381.53;;;14.33;56.14
5905;BME280;2978;42.012;24.880;2023-03-25T06:11:35;98374.25;;;14.37;54.54
5905;BME280;2978;42.012;24.880;2023-03-25T06:14:17;98369.72;;;14.55;55.19
5905;BME280;2978;42.012;24.880;2023-03-25T06:16:43;98365.69;;;14.75;55.48
5905;BME280;2978;42.012;24.880;2023-03-25T06:19:08;98366.66;;;14.92;55.45
5905;BME280;2978;42.012;24.880;2023-03-25T06:21:34;98367.03;;;14.99;54.82
5905;BME280;2978;42.012;24.880;2023-03-25T06:24:00;98370.59;;;15.00;53.76
5905;BME280;2978;42.012;24.880;2023-03-25T06:26:26;98373.81;;;15.15;53.34
5905;BME280;2978;42.012;24.880;2023-03-25T06:28:52;98375.59;;;15.33;52.68
5905;BME280;2978;42.012;24.880;2023-03-25T06:31:21;98373.03;;;15.37;52.44
5905;BME280;2978;42.012;24.880;2023-03-25T06:33:48;98369.44;;;15.36;52.94
5905;BME280;2978;42.012;24.880;2023-03-25T06:36:16;98368.81;;;15.39;52.69
5905;BME280;2978;42.012;24.880;2023-03-25T06:38:46;98374.25;;;15.44;52.85
5905;BME280;2978;42.012;24.880;2023-03-25T06:41:13;98373.94;;;15.46;52.65
5905;BME280;2978;42.012;24.880;2023-03-25T06:43:38;98379.66;;;15.49;52.53
5905;BME280;2978;42.012;24.880;2023-03-25T06:46:05;98379.25;;;15.64;52.27
5905;BME280;2978;42.012;24.880;2023-03-25T06:48:31;98379.66;;;15.80;52.11
5905;BME280;2978;42.012;24.880;2023-03-25T06:50:56;98380.00;;;15.78;51.36
5905;BME280;2978;42.012;24.880;2023-03-25T06:53:22;98364.00;;;15.75;51.09
5905;BME280;2978;42.012;24.880;2023-03-25T06:55:50;98375.97;;;15.85;50.93
5905;BME280;2978;42.012;24.880;2023-03-25T06:58:16;98372.06;;;15.94;50.57
5905;BME280;2978;42.012;24.880;2023-03-25T07:00:41;98373.25;;;16.02;50.17
5905;BME280;2978;42.012;24.880;2023-03-25T07:03:07;98362.69;;;16.04;49.68
5905;BME280;2978;42.012;24.880;2023-03-25T07:05:33;98361.22;;;16.15;49.83
5905;BME280;2978;42.012;24.880;2023-03-25T07:07:59;98356.22;;;16.34;49.76
5905;BME280;2978;42.012;24.880;2023-03-25T07:10:24;98367.34;;;16.42;48.70
5905;BME280;2978;42.012;24.880;2023-03-25T07:12:50;98363.31;;;16.48;48.56
5905;BME280;2978;42.012;24.880;2023-03-25T07:15:15;98367.44;;;16.59;48.15
5905;BME280;2978;42.012;24.880;2023-03-25T07:17:41;98355.69;;;16.71;48.02
5905;BME280;2978;42.012;24.880;2023-03-25T07:20:13;98360.13;;;16.80;47.99
5905;BME280;2978;42.012;24.880;2023-03-25T07:22:38;98361.41;;;16.74;47.67
5905;BME280;2978;42.012;24.880;2023-03-25T07:25:04;98365.50;;;16.77;47.68
5905;BME280;2978;42.012;24.880;2023-03-25T07:27:30;98363.19;;;16.70;47.51
5905;BME280;2978;42.012;24.880;2023-03-25T07:29:55;98359.78;;;16.73;48.26
5905;BME280;2978;42.012;24.880;2023-03-25T07:32:21;98362.91;;;16.80;47.78
5905;BME280;2978;42.012;24.880;2023-03-25T07:34:46;98359.13;;;16.85;47.53
5905;BME280;2978;42.012;24.880;2023-03-25T07:37:12;98353.41;;;16.81;47.39
5905;BME280;2978;42.012;24.880;2023-03-25T07:39:37;98347.22;;;16.84;47.64
5905;BME280;2978;42.012;24.880;2023-03-25T07:42:04;98338.72;;;16.81;48.25
5905;BME280;2978;42.012;24.880;2023-03-25T07:44:30;98349.97;;;16.93;47.69
5905;BME280;2978;42.012;24.880;2023-03-25T07:46:56;98346.56;;;17.13;47.55
5905;BME280;2978;42.012;24.880;2023-03-25T07:49:21;98351.63;;;17.28;47.85
5905;BME280;2978;42.012;24.880;2023-03-25T07:51:46;98340.00;;;17.26;47.49
5905;BME280;2978;42.012;24.880;2023-03-25T07:54:12;98347.38;;;17.31;47.92
5905;BME280;2978;42.012;24.880;2023-03-25T07:56:38;98350.81;;;17.36;47.16
5905;BME280;2978;42.012;24.880;2023-03-25T07:59:03;98345.56;;;17.43;47.88
5905;BME280;2978;42.012;24.880;2023-03-25T08:01:29;98338.34;;;17.42;47.77
5905;BME280;2978;42.012;24.880;2023-03-25T08:03:55;98351.94;;;17.52;47.75
5905;BME280;2978;42.012;24.880;2023-03-25T08:06:21;98346.03;;;17.62;47.82
5905;BME280;2978;42.012;24.880;2023-03-25T08:08:46;98339.00;;;17.56;47.96
5905;BME280;2978;42.012;24.880;2023-03-25T08:11:12;98324.94;;;17.53;48.26
5905;BME280;2978;42.012;24.880;2023-03-25T08:13:37;98331.31;;;17.62;48.29
5905;BME280;2978;42.012;24.880;2023-03-25T08:16:11;98337.34;;;17.72;47.56
5905;BME280;2978;42.012;24.880;2023-03-25T08:18:37;98323.09;;;17.74;47.82
5905;BME280;2978;42.012;24.880;2023-03-25T08:21:03;98324.44;;;17.59;48.06
5905;BME280;2978;42.012;24.880;2023-03-25T08:23:28;98324.94;;;17.44;48.74
5905;BME280;2978;42.012;24.880;2023-03-25T08:25:54;98328.56;;;17.53;48.25
5905;BME280;2978;42.012;24.880;2023-03-25T08:28:20;98322.78;;;17.67;47.11
5905;BME280;2978;42.012;24.880;2023-03-25T08:30:51;98333.41;;;17.73;47.74
5905;BME280;2978;42.012;24.880;2023-03-25T08:33:24;98326.38;;;17.76;46.98
5905;BME280;2978;42.012;24.880;2023-03-25T08:36:05;98323.38;;;17.89;47.51
5905;BME280;2978;42.012;24.880;2023-03-25T08:38:31;98324.97;;;17.90;47.59
5905;BME280;2978;42.012;24.880;2023-03-25T08:40:57;98316.97;;;17.89;47.10
5905;BME280;2978;42.012;24.880;2023-03-25T08:43:24;98322.34;;;18.03;47.05
5905;BME280;2978;42.012;24.880;2023-03-25T08:45:49;98317.91;;;18.02;47.03
5905;BME280;2978;42.012;24.880;2023-03-25T08:48:15;98320.66;;;18.10;46.94
5905;BME280;2978;42.012;24.880;2023-03-25T08:50:41;98319.81;;;18.18;46.25
5905;BME280;2978;42.012;24.880;2023-03-25T08:53:07;98302.91;;;18.23;46.03
5905;BME280;2978;42.012;24.880;2023-03-25T08:55:33;98314.81;;;18.41;45.47
5905;BME280;2978;42.012;24.880;2023-03-25T08:58:02;98312.25;;;18.56;45.49
5905;BME280;2978;42.012;24.880;2023-03-25T09:00:28;98297.34;;;18.52;45.25
5905;BME280;2978;42.012;24.880;2023-03-25T09:02:55;98305.03;;;18.76;44.69
5905;BME280;2978;42.012;24.880;2023-03-25T09:05:23;98302.72;;;18.78;44.46
5905;BME280;2978;42.012;24.880;2023-03-25T09:07:49;98297.44;;;18.85;44.88
5905;BME280;2978;42.012;24.880;2023-03-25T09:10:14;98295.13;;;18.87;45.57
5905;BME280;2978;42.012;24.880;2023-03-25T09:12:40;98291.59;;;18.78;45.83
5905;BME280;2978;42.012;24.880;2023-03-25T09:15:06;98287.59;;;18.87;45.06
5905;BME280;2978;42.012;24.880;2023-03-25T09:17:32;98271.53;;;19.05;44.82
5905;BME280;2978;42.012;24.880;2023-03-25T09:19:57;98257.59;;;19.05;44.63
5905;BME280;2978;42.012;24.880;2023-03-25T09:22:22;98269.44;;;19.02;44.41
5905;BME280;2978;42.012;24.880;2023-03-25T09:24:48;98273.94;;;18.94;45.16
5905;BME280;2978;42.012;24.880;2023-03-25T09:27:13;98257.34;;;18.98;45.07
5905;BME280;2978;42.012;24.880;2023-03-25T09:29:39;98252.47;;;18.95;45.01
5905;BME280;2978;42.012;24.880;2023-03-25T09:32:05;98243.63;;;18.93;45.53
5905;BME280;2978;42.012;24.880;2023-03-25T09:34:30;98239.41;;;18.87;45.50
5905;BME280;2978;42.012;24.880;2023-03-25T09:36:56;98235.06;;;18.98;45.58
5905;BME280;2978;42.012;24.880;2023-03-25T09:39:22;98226.72;;;19.10;45.54
5905;BME280;2978;42.012;24.880;2023-03-25T09:47:48;98221.50;;;19.41;45.81
5905;BME280;2978;42.012;24.880;2023-03-25T09:50:17;98209.09;;;19.51;45.27
5905;BME280;2978;42.012;24.880;2023-03-25T09:55:33;98200.75;;;19.63;45.61
5905;BME280;2978;42.012;24.880;2023-03-25T10:00:52;98201.22;;;19.77;45.06
5905;BME280;2978;42.012;24.880;2023-03-25T10:03:33;98193.50;;;19.86;44.96
5905;BME280;2978;42.012;24.880;2023-03-25T10:06:18;98198.41;;;19.89;44.75
5905;BME280;2978;42.012;24.880;2023-03-25T10:14:19;98185.47;;;20.08;43.81
5905;BME280;2978;42.012;24.880;2023-03-25T10:17:04;98173.63;;;20.11;43.60
5905;BME280;2978;42.012;24.880;2023-03-25T10:25:18;98157.00;;;20.55;42.65
5905;BME280;2978;42.012;24.880;2023-03-25T10:27:48;98150.72;;;20.58;42.12
5905;BME280;2978;42.012;24.880;2023-03-25T10:30:23;98142.44;;;20.61;42.19
5905;BME280;2978;42.012;24.880;2023-03-25T10:33:01;98134.63;;;20.67;42.52
5905;BME280;2978;42.012;24.880;2023-03-25T10:35:30;98142.84;;;20.75;42.49
5905;BME280;2978;42.012;24.880;2023-03-25T10:38:19;98129.03;;;20.67;42.07
5905;BME280;2978;42.012;24.880;2023-03-25T10:40:49;98115.63;;;20.72;41.88
5905;BME280;2978;42.012;24.880;2023-03-25T10:45:46;98126.63;;;20.81;41.96
5905;BME280;2978;42.012;24.880;2023-03-25T10:48:28;98117.00;;;20.94;41.22
5905;BME280;2978;42.012;24.880;2023-03-25T10:53:27;98100.81;;;21.15;40.66
5905;BME280;2978;42.012;24.880;2023-03-25T10:56:18;98106.69;;;21.25;40.53
5905;BME280;2978;42.012;24.880;2023-03-25T10:58:48;98101.81;;;21.38;40.64
5905;BME280;2978;42.012;24.880;2023-03-25T11:01:17;98105.63;;;21.46;40.31
5905;BME280;2978;42.012;24.880;2023-03-25T11:03:45;98104.97;;;21.52;39.64
5905;BME280;2978;42.012;24.880;2023-03-25T11:06:28;98097.81;;;21.70;39.31
5905;BME280;2978;42.012;24.880;2023-03-25T11:11:31;98082.63;;;21.87;38.93
5905;BME280;2978;42.012;24.880;2023-03-25T11:13:57;98087.53;;;22.09;38.57
5905;BME280;2978;42.012;24.880;2023-03-25T11:16:23;98081.44;;;22.22;38.01
5905;BME280;2978;42.012;24.880;2023-03-25T11:18:50;98074.88;;;22.34;38.26
5905;BME280;2978;42.012;24.880;2023-03-25T11:21:37;98070.38;;;22.29;38.21
5905;BME280;2978;42.012;24.880;2023-03-25T11:24:05;98077.44;;;22.04;38.91
5905;BME280;2978;42.012;24.880;2023-03-25T11:26:38;98070.53;;;22.17;38.72
5905;BME280;2978;42.012;24.880;2023-03-25T11:29:06;98056.53;;;22.17;38.38
5905;BME280;2978;42.012;24.880;2023-03-25T11:31:34;98049.81;;;22.22;38.69
5905;BME280;2978;42.012;24.880;2023-03-25T11:37:05;98037.28;;;22.35;37.87
5905;BME280;2978;42.012;24.880;2023-03-25T11:41:59;98040.72;;;22.48;38.64
5905;BME280;2978;42.012;24.880;2023-03-25T11:44:32;98033.66;;;22.54;38.18
5905;BME280;2978;42.012;24.880;2023-03-25T11:47:02;98033.84;;;22.22;38.93
5905;BME280;2978;42.012;24.880;2023-03-25T11:49:29;98040.16;;;22.19;39.16
5905;BME280;2978;42.012;24.880;2023-03-25T11:52:02;98028.53;;;22.17;38.33
5905;BME280;2978;42.012;24.880;2023-03-25T11:54:29;98027.41;;;22.22;38.91
5905;BME280;2978;42.012;24.880;2023-03-25T11:56:56;98014.75;;;22.28;38.81
5905;BME280;2978;42.012;24.880;2023-03-25T11:59:32;98009.28;;;22.35;38.42
5905;BME280;2978;42.012;24.880;2023-03-25T12:05:03;97997.97;;;22.51;38.81
5905;BME280;2978;42.012;24.880;2023-03-25T12:08:02;97993.16;;;22.51;38.83
5905;BME280;2978;42.012;24.880;2023-03-25T12:13:01;97986.25;;;22.45;39.14
5905;BME280;2978;42.012;24.880;2023-03-25T12:15:38;97981.88;;;22.48;38.00
5905;BME280;2978;42.012;24.880;2023-03-25T12:24:23;97967.94;;;22.51;38.63
5905;BME280;2978;42.012;24.880;2023-03-25T12:27:07;97959.97;;;22.53;38.83
5905;BME280;2978;42.012;24.880;2023-03-25T12:29:55;97964.34;;;22.51;38.60
5905;BME280;2978;42.012;24.880;2023-03-25T12:35:25;97955.34;;;22.61;38.25
5905;BME280;2978;42.012;24.880;2023-03-25T12:38:02;97952.13;;;22.59;38.11
5905;BME280;2978;42.012;24.880;2023-03-25T12:54:16;97931.91;;;22.95;38.49
5905;BME280;2978;42.012;24.880;2023-03-25T13:07:47;97911.44;;;23.17;37.61
5905;BME280;2978;42.012;24.880;2023-03-25T13:10:21;97908.69;;;23.20;36.45
5905;BME280;2978;42.012;24.880;2023-03-25T13:12:52;97895.78;;;23.16;37.31
5905;BME280;2978;42.012;24.880;2023-03-25T13:15:26;97899.13;;;23.25;36.97
5905;BME280;2978;42.012;24.880;2023-03-25T13:20:24;97887.78;;;23.18;36.33
5905;BME280;2978;42.012;24.880;2023-03-25T13:22:55;97889.78;;;23.17;35.29
5905;BME280;2978;42.012;24.880;2023-03-25T13:25:34;97888.22;;;23.20;34.89
5905;BME280;2978;42.012;24.880;2023-03-25T13:28:11;97885.22;;;23.32;34.10
5905;BME280;2978;42.012;24.880;2023-03-25T13:30:40;97881.41;;;23.47;34.09
5905;BME280;2978;42.012;24.880;2023-03-25T13:33:19;97873.56;;;23.60;33.77
5905;BME280;2978;42.012;24.880;2023-03-25T13:35:56;97885.69;;;23.67;33.05
5905;BME280;2978;42.012;24.880;2023-03-25T13:38:32;97874.56;;;23.74;33.10
5905;BME280;2978;42.012;24.880;2023-03-25T13:41:28;97874.66;;;23.81;32.67
5905;BME280;2978;42.012;24.880;2023-03-25T13:49:09;97854.09;;;24.07;32.80
5905;BME280;2978;42.012;24.880;2023-03-25T13:51:36;97863.13;;;24.26;32.28
5905;BME280;2978;42.012;24.880;2023-03-25T14:10:17;66104.38;;;-143.09;100.00
5905;BME280;2978;42.012;24.880;2023-03-25T14:13:03;66104.38;;;-143.09;100.00
5905;BME280;2978;42.012;24.880;2023-03-25T14:15:35;66104.38;;;-143.09;100.00
5905;BME280;2978;42.012;24.880;2023-03-25T14:18:03;66104.38;;;-143.09;100.00
5905;BME280;2978;42.012;24.880;2023-03-25T14:20:34;66104.38;;;-143.09;100.00
5905;BME280;2978;42.012;24.880;2023-03-25T14:23:04;66104.38;;;-143.09;100.00
5905;BME280;2978;42.012;24.880;2023-03-25T14:25:42;66104.38;;;-143.09;100.00
5905;BME280;2978;42.012;24.880;2023-03-25T14:28:30;66104.38;;;-143.09;100.00
5905;BME280;2978;42.012;24.880;2023-03-25T14:31:15;66104.38;;;-143.09;100.00
5905;BME280;2978;42.012;24.880;2023-03-25T14:34:11;66104.38;;;-143.09;100.00
5905;BME280;2978;42.012;24.880;2023-03-25T14:39:06;66104.38;;;-143.09;100.00
5905;BME280;2978;42.012;24.880;2023-03-25T14:44:35;66104.38;;;-143.09;100.00
5905;BME280;2978;42.012;24.880;2023-03-25T14:49:51;66104.38;;;-143.09;100.00
5905;BME280;2978;42.012;24.880;2023-03-25T14:53:04;66104.38;;;-143.09;100.00
5905;BME280;2978;42.012;24.880;2023-03-25T14:55:35;66104.38;;;-143.09;100.00
5905;BME280;2978;42.012;24.880;2023-03-25T14:58:17;66104.38;;;-143.09;100.00
5905;BME280;2978;42.012;24.880;2023-03-25T15:00:52;66104.38;;;-143.09;100.00
5905;BME280;2978;42.012;24.880;2023-03-25T15:03:19;66104.38;;;-143.09;100.00
5905;BME280;2978;42.012;24.880;2023-03-25T15:05:54;66104.38;;;-143.09;100.00
5905;BME280;2978;42.012;24.880;2023-03-25T15:08:34;66104.38;;;-143.09;100.00
5905;BME280;2978;42.012;24.880;2023-03-25T15:13:39;66104.38;;;-143.09;100.00
5905;BME280;2978;42.012;24.880;2023-03-25T15:26:01;66104.38;;;-143.09;100.00
5905;BME280;2978;42.012;24.880;2023-03-25T15:36:52;66104.38;;;-143.09;100.00
5905;BME280;2978;42.012;24.880;2023-03-25T15:45:21;66104.38;;;-143.09;100.00
5905;BME280;2978;42.012;24.880;2023-03-25T15:48:08;66104.38;;;-143.09;100.00
5905;BME280;2978;42.012;24.880;2023-03-25T15:56:23;66104.38;;;-143.09;100.00
5905;BME280;2978;42.012;24.880;2023-03-25T16:01:28;66104.38;;;-143.09;100.00
5905;BME280;2978;42.012;24.880;2023-03-25T16:06:43;66104.38;;;-143.09;100.00
5905;BME280;2978;42.012;24.880;2023-03-25T16:09:17;66104.38;;;-143.09;100.00
5905;BME280;2978;42.012;24.880;2023-03-25T16:11:44;66104.38;;;-143.09;100.00
5905;BME280;2978;42.012;24.880;2023-03-25T16:14:15;66104.38;;;-143.09;100.00
5905;BME280;2978;42.012;24.880;2023-03-25T16:16:45;66104.38;;;-143.09;100.00
5905;BME280;2978;42.012;24.880;2023-03-25T16:19:19;66104.38;;;-143.09;100.00
5905;BME280;2978;42.012;24.880;2023-03-25T16:21:50;66104.38;;;-143.09;100.00